Current Weather

NSFA McMurdo Sound

NSFA McMurdo Sound, Antarctica (NZCM)

Report from: Wednesday, May 29, 2024 8:26 AM UTC
Current time: Wednesday, May 29, 2024 9:05 AM UTC

Nearby weather – Weather history – Daily summaries
Weather forecast

Present weatherFreezing fog
Temperature-29.9°C (-21.8°F)
Dew point-34.7°C (-30.5°F)
Winds Calm
Visibility2132.5 ft. (650 m)
Clouds Ceiling: Vertical visibility 100 ft. (30 m)
Altimeter29.04 in.Hg (983 mB)
Precip. events Snow began 8:14 AM
Snow ended 8:26 AM
Relative humidity63 %
Density altitude-8,303 ft. (-2,531 m)
Sea-level pressure108.4 kPa (1084 mB, 32.01 in.Hg)
Remarks Fully automated report
System requires maintenance
Special weather observation
Automated weather observing station with precipitation discriminator
Visibility
Flight conditions Low Instrument Meteorological Conditions
Raw dataSPECI NZCM 290826Z AUTO 00000KT 0650 FZFG VV001 M30/M35 A2904 RMK AO2 VIS 0100V8000 SNB0814E0826 SLP841 T12991347 $
An error has occurred. This application may no longer respond until reloaded. Reload 🗙